Time;durP1;ratioP1;P1;durP2;ratioP2;P2;SDS_P1;SDS_P2;PMS_P1;PMS_P2;Temp;Humidity;BMP_temperature;BMP_pressure;BME280_temperature;BME280_humidity;BME280_pressure;Samples;Min_cycle;Max_cycle;Signal;HPM_P1;HPM_P2
2022/04/26 03:36:10;;;;;;;19.48;10.75;;;6.60;99.90;;;;;;5034190;28;20135;-74
2022/04/26 03:38:37;;;;;;;20.90;10.87;;;6.60;99.90;;;;;;5037354;28;20048;-74
2022/04/26 03:41:03;;;;;;;21.33;10.70;;;6.60;99.90;;;;;;5054145;28;20551;-75
2022/04/26 03:43:29;;;;;;;18.60;10.90;;;6.60;99.90;;;;;;5053493;28;20175;-74
2022/04/26 03:45:56;;;;;;;21.40;11.05;;;6.60;99.90;;;;;;5054145;28;20049;-74
2022/04/26 03:48:21;;;;;;;21.83;11.55;;;6.60;99.90;;;;;;5052123;28;20079;-74
2022/04/26 03:50:47;;;;;;;21.90;10.73;;;6.60;99.90;;;;;;5052620;28;20483;-74
2022/04/26 03:53:12;;;;;;;24.05;11.48;;;6.60;99.90;;;;;;5054265;28;20053;-74
2022/04/26 03:55:38;;;;;;;20.35;10.25;;;6.60;99.90;;;;;;5056781;28;20074;-74
2022/04/26 03:58:03;;;;;;;21.10;11.65;;;6.60;99.90;;;;;;5039726;28;20057;-74
2022/04/26 04:00:29;;;;;;;17.50;9.07;;;6.70;99.90;;;;;;5033891;28;20045;-74
2022/04/26 04:02:54;;;;;;;16.55;9.40;;;6.60;99.90;;;;;;5033803;28;20129;-74
2022/04/26 04:05:21;;;;;;;17.88;10.25;;;6.70;99.90;;;;;;5033659;28;20191;-74
2022/04/26 04:07:47;;;;;;;17.83;10.02;;;6.70;99.90;;;;;;5033642;28;20049;-74
2022/04/26 04:10:13;;;;;;;18.52;10.70;;;6.70;99.90;;;;;;5052087;28;20400;-74
2022/04/26 04:12:38;;;;;;;22.83;11.05;;;6.70;99.90;;;;;;5034685;28;20083;-74
2022/04/26 04:15:04;;;;;;;20.05;10.82;;;6.70;99.90;;;;;;5033995;28;20053;-74
2022/04/26 04:17:30;;;;;;;17.63;10.55;;;6.70;99.90;;;;;;5033284;28;20151;-74
2022/04/26 04:19:55;;;;;;;18.52;9.75;;;6.70;99.90;;;;;;5033809;28;20513;-74
2022/04/26 04:22:21;;;;;;;24.30;9.80;;;6.70;99.90;;;;;;5028493;28;20370;-75
2022/04/26 04:24:48;;;;;;;18.25;10.15;;;6.70;99.90;;;;;;5035109;28;20045;-74
2022/04/26 04:27:13;;;;;;;17.83;9.73;;;6.70;99.90;;;;;;5053830;28;20203;-74
2022/04/26 04:29:39;;;;;;;19.65;9.25;;;6.70;99.90;;;;;;5051907;28;20036;-74
2022/04/26 04:32:05;;;;;;;18.83;8.13;;;6.70;99.90;;;;;;5064541;28;20385;-74
2022/04/26 04:34:30;;;;;;;16.17;8.73;;;6.70;99.90;;;;;;5071520;28;20051;-74
2022/04/26 04:36:56;;;;;;;17.70;9.02;;;6.80;99.90;;;;;;5052072;28;20059;-75
2022/04/26 04:39:23;;;;;;;17.38;8.80;;;6.70;99.90;;;;;;5045290;28;20087;-74
2022/04/26 04:41:49;;;;;;;15.45;8.35;;;6.80;99.90;;;;;;5067616;28;20053;-74
2022/04/26 04:44:15;;;;;;;21.70;8.50;;;6.80;99.90;;;;;;5057617;28;20049;-75
2022/04/26 04:46:40;;;;;;;18.48;8.85;;;6.80;99.90;;;;;;5052383;28;20078;-74
2022/04/26 04:49:06;;;;;;;20.77;8.15;;;6.80;99.90;;;;;;5051660;28;20187;-74
2022/04/26 04:51:31;;;;;;;16.70;7.72;;;6.80;99.90;;;;;;5051732;28;20426;-74
2022/04/26 04:53:57;;;;;;;17.75;7.03;;;6.80;99.90;;;;;;5044322;28;20126;-74
2022/04/26 04:56:24;;;;;;;15.02;6.43;;;6.80;99.90;;;;;;5051634;28;20053;-74
2022/04/26 04:58:51;;;;;;;12.95;6.50;;;6.80;99.90;;;;;;5052921;28;20087;-74
2022/04/26 05:01:16;;;;;;;15.13;7.03;;;6.80;99.90;;;;;;5052340;28;20044;-74
2022/04/26 05:03:42;;;;;;;16.45;7.40;;;6.80;99.90;;;;;;5052769;28;20535;-74
2022/04/26 05:06:08;;;;;;;18.33;7.20;;;6.80;99.90;;;;;;5053235;28;20423;-74
2022/04/26 05:08:34;;;;;;;15.88;7.28;;;6.80;99.90;;;;;;5051503;28;20049;-74
2022/04/26 05:11:00;;;;;;;15.90;7.18;;;6.80;99.90;;;;;;5051210;28;20048;-74
2022/04/26 05:13:25;;;;;;;17.30;7.20;;;6.80;99.90;;;;;;5052786;28;20044;-74
2022/04/26 05:15:51;;;;;;;15.57;7.72;;;6.80;99.90;;;;;;5052132;28;20052;-75
2022/04/26 05:18:16;;;;;;;17.02;8.55;;;6.80;99.90;;;;;;5052764;28;20057;-75
2022/04/26 05:20:43;;;;;;;19.10;7.00;;;6.90;99.90;;;;;;5052065;28;20043;-74
2022/04/26 05:25:53;;;;;;;15.75;7.15;;;7.00;99.90;;;;;;5032442;28;20211;-74
2022/04/26 05:28:18;;;;;;;15.93;7.53;;;7.10;99.90;;;;;;5032106;28;20529;-75
2022/04/26 05:30:44;;;;;;;15.75;7.07;;;7.10;99.90;;;;;;5033094;28;20049;-74
2022/04/26 05:33:09;;;;;;;16.42;7.20;;;7.10;99.90;;;;;;5052181;28;20045;-74
2022/04/26 05:35:35;;;;;;;19.80;7.63;;;7.10;99.90;;;;;;5044540;28;20136;-74
2022/04/26 05:38:00;;;;;;;11.43;6.35;;;7.10;99.90;;;;;;5030969;28;20069;-75
2022/04/26 05:40:26;;;;;;;14.18;5.85;;;7.10;99.90;;;;;;5049353;28;20174;-74
2022/04/26 05:42:51;;;;;;;12.80;5.95;;;7.20;99.90;;;;;;5051794;28;20049;-75
2022/04/26 05:45:17;;;;;;;13.63;6.20;;;7.20;99.90;;;;;;5051720;28;20063;-74
2022/04/26 05:47:44;;;;;;;18.40;6.18;;;7.20;99.90;;;;;;5067983;28;20117;-74
2022/04/26 05:50:11;;;;;;;14.18;5.80;;;7.20;99.90;;;;;;5060736;28;20076;-75
2022/04/26 05:52:37;;;;;;;13.70;5.60;;;7.30;99.90;;;;;;5050455;28;20414;-74
2022/04/26 05:55:08;;;;;;;12.48;5.18;;;7.30;99.90;;;;;;5145699;27;20576;-73
2022/04/26 05:57:42;;;;;;;11.93;5.18;;;7.30;99.90;;;;;;5129107;27;20054;-74
2022/04/26 06:00:09;;;;;;;17.58;5.55;;;7.40;99.90;;;;;;5128287;28;20054;-73
2022/04/26 06:02:35;;;;;;;11.23;5.07;;;7.40;99.90;;;;;;5145090;27;20510;-74
2022/04/26 06:05:01;;;;;;;12.27;5.32;;;7.40;99.90;;;;;;5127152;27;20047;-73
2022/04/26 06:07:27;;;;;;;13.93;5.30;;;7.50;99.90;;;;;;5108727;28;20068;-74
2022/04/26 06:09:54;;;;;;;8.73;4.47;;;7.50;99.90;;;;;;5123667;28;20047;-73
2022/04/26 06:12:23;;;;;;;12.70;4.93;;;7.60;99.90;;;;;;5128967;27;20035;-73
2022/04/26 06:14:49;;;;;;;12.82;6.32;;;7.60;99.90;;;;;;5128641;27;20509;-74
2022/04/26 06:17:15;;;;;;;13.45;5.22;;;7.60;99.90;;;;;;5125084;28;20447;-73
2022/04/26 06:19:40;;;;;;;12.50;5.07;;;7.60;99.90;;;;;;5108727;28;20093;-74
2022/04/26 06:22:06;;;;;;;9.82;5.28;;;7.60;99.90;;;;;;5108549;28;20085;-73
2022/04/26 06:24:31;;;;;;;15.15;5.43;;;7.70;99.90;;;;;;5118926;28;20059;-73
2022/04/26 06:26:57;;;;;;;17.73;5.78;;;7.70;99.90;;;;;;5108626;28;20097;-73
2022/04/26 06:29:22;;;;;;;13.40;6.25;;;7.80;99.90;;;;;;5128631;27;20051;-73
2022/04/26 06:31:48;;;;;;;15.32;5.45;;;7.80;99.90;;;;;;5122005;27;20039;-74
2022/04/26 06:34:13;;;;;;;12.48;5.57;;;7.90;99.90;;;;;;5108551;28;20104;-74
2022/04/26 06:36:39;;;;;;;12.27;5.72;;;8.00;99.90;;;;;;5123338;28;20039;-73
2022/04/26 06:39:05;;;;;;;13.20;5.47;;;8.20;99.90;;;;;;5127011;28;20072;-73
2022/04/26 06:41:31;;;;;;;13.85;5.32;;;8.30;99.90;;;;;;5128440;27;20054;-73
2022/04/26 06:43:56;;;;;;;14.43;5.70;;;8.40;99.90;;;;;;5127157;27;20379;-73
2022/04/26 06:46:22;;;;;;;13.40;4.95;;;8.50;99.90;;;;;;5119715;27;20047;-73
2022/04/26 06:48:49;;;;;;;11.63;5.32;;;8.50;99.90;;;;;;5128456;27;20118;-73
2022/04/26 06:51:15;;;;;;;7.97;4.32;;;8.50;99.90;;;;;;5127524;28;20566;-73
2022/04/26 06:53:42;;;;;;;12.48;4.22;;;8.50;99.90;;;;;;5126387;27;20056;-73
2022/04/26 06:56:07;;;;;;;13.43;4.30;;;8.50;99.90;;;;;;5128585;27;20040;-73
2022/04/26 06:58:33;;;;;;;8.98;4.32;;;8.50;99.90;;;;;;5128100;27;20131;-76
2022/04/26 07:01:00;;;;;;;11.45;4.65;;;8.70;99.90;;;;;;5111679;27;20127;-74
2022/04/26 07:03:26;;;;;;;11.93;4.85;;;8.70;99.90;;;;;;5107998;28;20125;-74
2022/04/26 07:05:52;;;;;;;9.02;3.63;;;8.70;99.90;;;;;;5105796;28;20623;-74
2022/04/26 07:08:18;;;;;;;9.98;3.42;;;8.90;99.90;;;;;;5112844;28;20506;-73
2022/04/26 07:10:44;;;;;;;9.32;3.20;;;9.00;99.90;;;;;;5114287;28;20040;-76
2022/04/26 07:13:09;;;;;;;8.80;3.08;;;9.20;99.90;;;;;;5113211;28;20151;-76
2022/04/26 07:15:35;;;;;;;12.27;3.13;;;9.40;99.90;;;;;;5092789;28;20044;-76
2022/04/26 07:18:00;;;;;;;8.98;3.05;;;9.50;99.90;;;;;;5092945;28;20093;-76
2022/04/26 07:20:28;;;;;;;9.45;2.95;;;9.60;99.90;;;;;;5093660;28;20200;-76
2022/04/26 07:22:55;;;;;;;12.57;3.50;;;9.60;99.90;;;;;;5089511;28;20048;-74
2022/04/26 07:25:20;;;;;;;8.20;2.35;;;9.60;99.90;;;;;;5109884;28;20073;-73
2022/04/26 07:27:46;;;;;;;7.97;2.97;;;9.50;99.90;;;;;;5110089;28;20125;-74
2022/04/26 07:30:12;;;;;;;7.97;2.92;;;9.60;99.90;;;;;;5093888;28;20059;-74
2022/04/26 07:35:22;;;;;;;9.33;2.63;;;9.90;99.90;;;;;;5113741;28;20043;-74
2022/04/26 07:37:48;;;;;;;7.18;2.83;;;10.10;99.90;;;;;;5113630;28;20346;-74
2022/04/26 07:40:13;;;;;;;8.77;3.08;;;10.30;99.90;;;;;;5113895;27;20461;-74
2022/04/26 07:42:39;;;;;;;10.13;2.63;;;10.40;99.90;;;;;;5102750;28;20047;-74
2022/04/26 07:45:05;;;;;;;8.95;2.60;;;10.40;99.90;;;;;;5093689;28;20169;-74
2022/04/26 07:47:31;;;;;;;5.85;2.70;;;10.30;99.90;;;;;;5105025;28;20040;-74
2022/04/26 07:49:58;;;;;;;6.00;2.30;;;10.30;99.90;;;;;;5113664;28;20055;-74
2022/04/26 07:52:24;;;;;;;10.05;3.10;;;10.20;99.90;;;;;;5113877;28;20079;-74
2022/04/26 07:54:50;;;;;;;9.82;3.10;;;10.20;99.90;;;;;;5113131;28;20136;-74
2022/04/26 07:57:16;;;;;;;8.82;2.85;;;10.10;99.90;;;;;;5096938;28;20391;-74
2022/04/26 07:59:41;;;;;;;7.38;2.45;;;10.10;99.90;;;;;;5093097;28;20048;-74
2022/04/26 08:02:08;;;;;;;13.00;2.40;;;10.10;99.90;;;;;;5093172;28;20048;-74
2022/04/26 08:04:34;;;;;;;11.50;2.97;;;10.20;99.90;;;;;;5092625;28;20048;-74
2022/04/26 08:06:59;;;;;;;9.25;2.53;;;10.20;99.90;;;;;;5108491;28;20411;-74
2022/04/26 08:09:25;;;;;;;6.10;2.28;;;10.30;99.90;;;;;;5103806;28;20042;-74
2022/04/26 08:11:50;;;;;;;8.48;2.40;;;10.40;99.90;;;;;;5112544;28;20383;-74
2022/04/26 08:14:16;;;;;;;8.95;2.58;;;10.60;99.90;;;;;;5113251;28;20051;-74
2022/04/26 08:16:42;;;;;;;8.13;2.63;;;10.90;99.90;;;;;;5111703;28;20047;-74
2022/04/26 08:19:10;;;;;;;8.05;2.22;;;11.20;99.90;;;;;;5113486;28;20139;-75
2022/04/26 08:21:36;;;;;;;6.97;2.60;;;11.40;99.90;;;;;;5112987;28;20059;-74
2022/04/26 08:29:30;;;;;;;4.80;2.00;;;12.00;99.90;;;;;;5110497;28;20047;-74
2022/04/26 08:31:56;;;;;;;9.25;2.80;;;12.00;99.90;;;;;;5112249;28;20040;-74
2022/04/26 08:34:22;;;;;;;14.98;3.25;;;12.00;99.90;;;;;;5128752;27;20101;-75
2022/04/26 08:36:48;;;;;;;7.43;2.67;;;12.00;99.90;;;;;;5112780;27;20044;-74
2022/04/26 08:39:14;;;;;;;8.98;3.28;;;12.00;99.90;;;;;;5106664;28;20047;-74
2022/04/26 08:41:40;;;;;;;8.63;3.13;;;11.80;99.90;;;;;;5110963;28;20406;-74
2022/04/26 08:44:12;;;;;;;6.93;2.88;;;11.60;99.90;;;;;;5112892;28;20092;-75
2022/04/26 08:52:07;;;;;;;6.13;2.22;;;11.10;99.90;;;;;;5107441;28;20052;-74
2022/04/26 08:54:33;;;;;;;9.32;3.13;;;11.10;99.90;;;;;;5101618;28;20396;-74
2022/04/26 08:56:59;;;;;;;8.02;2.83;;;11.00;99.90;;;;;;5112431;28;20056;-74
2022/04/26 08:59:26;;;;;;;5.95;2.38;;;10.90;99.90;;;;;;5112003;28;20055;-74
2022/04/26 09:02:18;;;;;;;10.40;2.83;;;10.90;99.90;;;;;;5106628;28;20482;-74
2022/04/26 09:04:45;;;;;;;7.15;2.90;;;11.10;99.90;;;;;;5091950;28;20089;-74
2022/04/26 09:07:26;;;;;;;7.63;2.95;;;11.20;99.90;;;;;;5090145;28;20078;-74
2022/04/26 09:10:15;;;;;;;8.70;2.40;;;11.20;99.90;;;;;;5107883;28;20043;-74
2022/04/26 09:13:08;;;;;;;7.18;2.38;;;11.20;99.90;;;;;;5112002;28;20114;-74
2022/04/26 09:15:50;;;;;;;5.88;2.10;;;11.10;99.90;;;;;;5106062;28;20048;-75
2022/04/26 09:18:26;;;;;;;7.68;2.33;;;11.40;99.90;;;;;;5091983;28;20051;-74
2022/04/26 09:21:09;;;;;;;10.50;2.67;;;11.70;99.90;;;;;;5099964;28;20032;-74
2022/04/26 09:23:38;;;;;;;7.55;2.60;;;12.00;99.90;;;;;;5117614;27;20100;-74
2022/04/26 09:26:09;;;;;;;9.35;2.50;;;12.30;99.90;;;;;;5091501;28;20479;-75
2022/04/26 09:28:37;;;;;;;6.03;2.30;;;12.40;99.90;;;;;;5103308;28;20044;-75
2022/04/26 09:31:39;;;;;;;6.78;2.53;;;12.30;99.90;;;;;;5112126;28;20099;-75
2022/04/26 09:34:13;;;;;;;10.35;2.80;;;12.20;99.90;;;;;;5076354;28;20132;-75
2022/04/26 09:36:44;;;;;;;7.88;2.50;;;12.10;99.90;;;;;;5091307;28;20055;-75
2022/04/26 09:39:10;;;;;;;8.68;2.45;;;12.20;99.90;;;;;;5098845;28;20444;-75
2022/04/26 09:41:36;;;;;;;8.70;2.80;;;12.20;99.90;;;;;;5111081;28;20043;-75
2022/04/26 09:44:06;;;;;;;7.80;2.80;;;12.30;99.90;;;;;;5111701;28;20055;-75
2022/04/26 09:46:53;;;;;;;9.93;2.78;;;12.40;99.90;;;;;;5111726;28;20131;-75
2022/04/26 09:49:24;;;;;;;6.82;2.30;;;12.60;99.90;;;;;;5100408;28;20047;-75
2022/04/26 09:51:54;;;;;;;8.10;2.50;;;12.80;99.90;;;;;;5091272;28;20420;-75
2022/04/26 09:54:20;;;;;;;6.63;2.45;;;13.00;99.90;;;;;;5090937;28;20067;-75
2022/04/26 09:56:47;;;;;;;11.02;2.80;;;13.20;99.90;;;;;;5090581;28;20051;-75
2022/04/26 09:59:26;;;;;;;5.47;2.33;;;13.40;99.90;;;;;;5090943;28;20480;-75
2022/04/26 10:01:55;;;;;;;9.70;2.47;;;13.50;99.90;;;;;;5091389;28;20093;-75
2022/04/26 10:04:23;;;;;;;8.68;2.22;;;13.60;99.90;;;;;;5090668;28;20048;-75
2022/04/26 10:06:57;;;;;;;7.82;2.20;;;13.70;99.90;;;;;;5091069;28;20506;-75
2022/04/26 10:09:24;;;;;;;8.50;2.55;;;13.70;99.90;;;;;;5102798;28;20059;-75
2022/04/26 10:11:59;;;;;;;8.23;2.60;;;13.90;98.90;;;;;;5109815;28;20130;-75
2022/04/26 10:14:27;;;;;;;9.65;2.67;;;14.10;99.60;;;;;;5111115;28;20422;-75
2022/04/26 10:16:53;;;;;;;7.72;2.72;;;14.20;99.70;;;;;;5103391;28;20093;-74
2022/04/26 10:19:19;;;;;;;6.53;2.78;;;14.10;99.00;;;;;;5091190;28;20048;-74
2022/04/26 10:21:46;;;;;;;7.97;3.13;;;13.90;99.00;;;;;;5106593;28;20105;-74
2022/04/26 10:24:20;;;;;;;9.20;2.70;;;13.70;99.70;;;;;;5103060;28;20048;-75
2022/04/26 10:26:48;;;;;;;5.93;2.42;;;13.90;99.20;;;;;;5111426;28;20047;-75
2022/04/26 10:29:17;;;;;;;6.93;2.55;;;13.90;99.20;;;;;;5126728;28;20051;-75
2022/04/26 10:31:56;;;;;;;6.78;2.45;;;13.90;99.50;;;;;;5106284;28;20425;-75
2022/04/26 10:34:26;;;;;;;6.68;2.55;;;13.90;99.30;;;;;;5109982;28;20139;-75
2022/04/26 10:37:02;;;;;;;6.88;2.47;;;14.00;99.00;;;;;;5110021;28;20070;-76
2022/04/26 10:39:52;;;;;;;6.15;2.70;;;14.20;99.00;;;;;;5109048;28;20055;-76
2022/04/26 10:42:19;;;;;;;5.85;2.92;;;14.20;98.80;;;;;;5094313;28;20526;-76
2022/04/26 10:44:46;;;;;;;6.57;2.78;;;14.30;98.60;;;;;;5092592;28;20047;-76
2022/04/26 10:47:18;;;;;;;7.18;2.42;;;14.30;98.40;;;;;;5103428;28;20036;-76
2022/04/26 10:49:45;;;;;;;4.07;2.20;;;14.40;97.90;;;;;;5114916;28;20043;-76
2022/04/26 10:52:22;;;;;;;4.75;2.00;;;14.20;97.00;;;;;;5114688;28;20107;-76
2022/04/26 10:55:03;;;;;;;5.15;2.33;;;14.10;97.50;;;;;;5113034;28;20104;-76
2022/04/26 10:57:34;;;;;;;7.55;2.67;;;14.20;98.00;;;;;;5115028;28;20048;-76
2022/04/26 11:00:01;;;;;;;8.48;2.90;;;14.40;97.00;;;;;;5100069;28;20475;-76
2022/04/26 11:02:36;;;;;;;8.80;2.95;;;14.70;97.50;;;;;;5093164;28;20059;-76
2022/04/26 11:05:16;;;;;;;8.55;3.05;;;14.70;96.90;;;;;;5094550;28;20031;-76
2022/04/26 11:07:49;;;;;;;6.78;2.60;;;14.60;96.50;;;;;;5093790;28;20048;-76
2022/04/26 11:10:18;;;;;;;6.75;2.15;;;14.50;97.20;;;;;;5112888;28;20046;-76
2022/04/26 11:12:44;;;;;;;8.95;3.10;;;14.60;95.90;;;;;;5110482;28;20829;-76
2022/04/26 11:15:13;;;;;;;5.20;2.30;;;14.70;96.60;;;;;;5094216;28;20040;-76
2022/04/26 11:17:40;;;;;;;6.35;2.30;;;14.80;95.20;;;;;;5105081;28;20050;-76
2022/04/26 11:20:12;;;;;;;6.80;2.63;;;15.00;95.30;;;;;;5114030;28;20039;-76
2022/04/26 11:22:49;;;;;;;5.82;2.40;;;15.10;95.40;;;;;;5109678;28;20463;-76
2022/04/26 11:28:21;;;;;;;5.68;2.42;;;15.70;94.60;;;;;;5095110;28;20499;-76
2022/04/26 11:30:54;;;;;;;6.28;2.88;;;15.80;94.10;;;;;;5074506;28;20058;-76
2022/04/26 11:33:22;;;;;;;7.63;2.90;;;15.80;94.30;;;;;;5092663;28;20062;-76
2022/04/26 11:35:59;;;;;;;7.72;2.65;;;15.50;94.00;;;;;;5091633;28;20487;-76
2022/04/26 11:38:25;;;;;;;7.38;2.60;;;15.20;93.10;;;;;;5114194;27;20043;-76
2022/04/26 11:40:54;;;;;;;8.45;2.70;;;15.20;94.50;;;;;;5110340;28;20533;-76
2022/04/26 11:43:22;;;;;;;5.45;2.40;;;15.40;92.90;;;;;;5104396;28;20439;-76
2022/04/26 11:45:52;;;;;;;6.35;2.42;;;15.60;93.70;;;;;;5113777;28;20127;-76
2022/04/26 11:48:18;;;;;;;6.38;2.83;;;15.70;92.90;;;;;;5113614;28;20051;-76
2022/04/26 11:50:47;;;;;;;6.60;2.70;;;15.90;93.30;;;;;;5113307;28;20517;-76
2022/04/26 11:53:15;;;;;;;5.97;2.58;;;15.90;92.50;;;;;;5113778;28;20057;-76
2022/04/26 11:55:46;;;;;;;5.50;2.30;;;15.80;93.00;;;;;;5111563;28;20119;-76
2022/04/26 11:58:27;;;;;;;6.88;2.63;;;15.60;93.40;;;;;;5113741;27;20088;-76
2022/04/26 12:00:56;;;;;;;11.57;2.80;;;15.60;93.30;;;;;;5113562;28;20047;-76
2022/04/26 12:03:24;;;;;;;9.35;3.33;;;15.70;93.40;;;;;;5113186;28;20126;-76
2022/04/26 12:06:03;;;;;;;6.35;2.55;;;15.80;92.40;;;;;;5113499;28;20067;-76
2022/04/26 12:08:54;;;;;;;6.93;2.55;;;15.80;91.90;;;;;;5112940;28;20519;-76
2022/04/26 12:11:26;;;;;;;7.38;2.92;;;15.70;92.40;;;;;;5106164;28;20474;-76
2022/04/26 12:14:11;;;;;;;6.90;3.15;;;15.60;90.30;;;;;;5113109;28;20039;-76
2022/04/26 12:16:42;;;;;;;6.00;2.63;;;15.60;91.00;;;;;;5112645;28;20035;-76
2022/04/26 12:19:08;;;;;;;6.30;2.75;;;15.60;92.10;;;;;;5113628;28;20384;-76
2022/04/26 12:21:44;;;;;;;6.95;2.80;;;15.60;90.60;;;;;;5112962;28;20046;-76
2022/04/26 12:24:17;;;;;;;5.93;2.33;;;15.40;90.80;;;;;;5095270;28;20044;-76
2022/04/26 12:26:59;;;;;;;7.00;2.22;;;15.10;90.70;;;;;;5091521;28;20071;-76
2022/04/26 12:29:35;;;;;;;6.47;2.53;;;15.10;91.20;;;;;;5091543;28;20044;-76
2022/04/26 12:32:05;;;;;;;7.22;2.67;;;15.20;90.80;;;;;;5103471;28;20043;-76
2022/04/26 12:34:30;;;;;;;5.25;2.35;;;15.30;92.60;;;;;;5112718;28;20128;-76
2022/04/26 12:36:57;;;;;;;5.85;2.47;;;15.30;92.30;;;;;;5110975;28;20077;-77
2022/04/26 12:39:25;;;;;;;4.70;2.20;;;15.40;90.60;;;;;;5101711;28;20140;-76
2022/04/26 12:41:56;;;;;;;7.47;2.15;;;15.40;90.30;;;;;;5112946;28;20044;-76
2022/04/26 12:44:23;;;;;;;6.50;2.25;;;15.40;90.80;;;;;;5112405;28;20055;-76
2022/04/26 12:52:47;;;;;;;7.65;2.30;;;16.00;89.20;;;;;;5095099;28;20052;-77
2022/04/26 12:55:23;;;;;;;6.22;2.30;;;16.10;90.10;;;;;;5092253;28;20185;-76
2022/04/26 12:57:50;;;;;;;5.82;2.38;;;16.10;91.30;;;;;;5095366;28;20399;-76
2022/04/26 13:00:17;;;;;;;7.22;2.20;;;16.20;91.60;;;;;;5111947;28;20540;-76
2022/04/26 13:02:42;;;;;;;8.18;2.38;;;16.50;91.20;;;;;;5111321;27;20052;-76
2022/04/26 13:05:08;;;;;;;8.05;2.92;;;16.60;90.10;;;;;;5110019;28;20101;-76
2022/04/26 13:07:34;;;;;;;5.85;2.13;;;16.60;89.90;;;;;;5091844;28;20094;-76
2022/04/26 13:09:59;;;;;;;8.13;2.25;;;16.40;88.60;;;;;;5107266;28;20543;-76
2022/04/26 13:12:25;;;;;;;5.40;2.40;;;16.10;90.00;;;;;;5111711;28;20118;-76
2022/04/26 13:14:50;;;;;;;7.13;2.30;;;16.10;90.70;;;;;;5110578;28;20055;-76
2022/04/26 13:17:20;;;;;;;6.93;2.47;;;16.20;91.00;;;;;;5111875;28;20079;-76
2022/04/26 13:19:47;;;;;;;5.35;2.22;;;16.50;90.90;;;;;;5104436;28;20526;-76
2022/04/26 13:22:15;;;;;;;6.70;3.05;;;16.60;91.00;;;;;;5092119;28;20083;-76
2022/04/26 13:24:40;;;;;;;6.28;2.28;;;16.50;90.40;;;;;;5086876;28;20067;-76
2022/04/26 13:27:06;;;;;;;4.82;2.22;;;16.20;90.70;;;;;;5106759;28;20079;-76
2022/04/26 13:29:32;;;;;;;4.70;2.10;;;16.00;90.40;;;;;;5091116;28;20044;-76
2022/04/26 13:31:58;;;;;;;4.70;1.90;;;15.90;91.40;;;;;;5102633;28;20624;-76
2022/04/26 13:34:24;;;;;;;5.10;2.28;;;16.00;91.90;;;;;;5099898;28;20048;-76
2022/04/26 13:36:51;;;;;;;5.82;2.42;;;16.30;91.20;;;;;;5098641;28;20036;-76
2022/04/26 13:39:16;;;;;;;8.00;2.42;;;16.70;91.40;;;;;;5110359;28;20060;-76
2022/04/26 13:41:42;;;;;;;6.15;2.40;;;17.00;90.50;;;;;;5109590;28;20062;-76
2022/04/26 13:44:07;;;;;;;6.93;2.40;;;17.10;90.10;;;;;;5111778;28;20414;-76
2022/04/26 13:46:33;;;;;;;4.35;2.20;;;17.20;87.30;;;;;;5111784;28;20401;-76
2022/04/26 13:48:59;;;;;;;6.07;2.40;;;17.20;89.60;;;;;;5094017;28;20161;-76
2022/04/26 13:51:29;;;;;;;4.75;2.08;;;17.30;89.70;;;;;;5091526;28;20111;-76
2022/04/26 13:53:54;;;;;;;6.97;2.30;;;17.50;88.40;;;;;;5091110;28;20491;-76
2022/04/26 13:56:20;;;;;;;7.05;2.35;;;17.60;87.90;;;;;;5090811;28;20051;-76
2022/04/26 13:58:45;;;;;;;7.55;2.05;;;17.80;87.60;;;;;;5105538;28;20126;-76
2022/04/26 14:01:11;;;;;;;6.32;2.65;;;17.80;87.60;;;;;;5111384;28;20391;-76
2022/04/26 14:03:37;;;;;;;5.40;2.20;;;17.90;87.00;;;;;;5090540;28;20506;-76
2022/04/26 14:06:02;;;;;;;5.05;2.00;;;17.80;86.00;;;;;;5100793;28;20056;-76
2022/04/26 14:08:30;;;;;;;4.97;2.10;;;17.80;84.50;;;;;;5110807;28;20104;-76
2022/04/26 14:10:56;;;;;;;5.57;2.15;;;17.70;84.80;;;;;;5111602;28;20062;-76
2022/04/26 14:13:22;;;;;;;4.18;2.03;;;17.60;86.80;;;;;;5111482;28;20510;-76
2022/04/26 14:24:06;;;;;;;6.13;2.30;;;17.60;85.70;;;;;;5089599;28;20487;-76
2022/04/26 14:26:31;;;;;;;7.78;2.45;;;17.40;85.70;;;;;;5094833;28;20126;-76
2022/04/26 14:28:57;;;;;;;8.23;2.85;;;17.10;86.00;;;;;;5093561;28;20559;-76
2022/04/26 14:31:22;;;;;;;5.15;2.60;;;17.00;87.30;;;;;;5095245;28;20040;-76
2022/04/26 14:33:48;;;;;;;6.57;2.78;;;17.10;88.00;;;;;;5094822;28;20043;-76
2022/04/26 14:36:14;;;;;;;7.28;2.88;;;16.80;87.50;;;;;;5097064;28;20505;-76
2022/04/26 14:38:39;;;;;;;6.55;2.78;;;16.50;89.40;;;;;;5114329;28;20498;-76
2022/04/26 14:41:05;;;;;;;6.72;2.50;;;16.30;90.40;;;;;;5115368;28;20036;-76
2022/04/26 14:43:30;;;;;;;8.98;2.88;;;16.10;88.60;;;;;;5113131;28;20067;-76
2022/04/26 14:45:56;;;;;;;6.50;2.63;;;15.80;90.60;;;;;;5094942;28;20076;-76
2022/04/26 14:48:23;;;;;;;5.82;2.60;;;15.70;91.80;;;;;;5094982;28;20467;-76
2022/04/26 14:50:49;;;;;;;8.63;3.65;;;15.70;90.90;;;;;;5094079;28;20067;-76
2022/04/26 14:53:15;;;;;;;8.25;3.00;;;15.60;91.50;;;;;;5092775;28;20530;-76
2022/04/26 14:55:41;;;;;;;5.53;2.60;;;15.60;90.10;;;;;;5113093;28;20090;-76
2022/04/26 14:58:09;;;;;;;7.95;2.25;;;15.60;91.20;;;;;;5124202;27;20503;-76
2022/04/26 15:00:36;;;;;;;6.93;2.47;;;15.80;91.10;;;;;;5109861;28;20069;-76
2022/04/26 15:03:02;;;;;;;6.32;2.95;;;16.00;90.60;;;;;;5110057;28;20043;-76
2022/04/26 15:05:28;;;;;;;6.97;2.33;;;16.10;90.50;;;;;;5114237;28;20043;-76
2022/04/26 15:10:38;;;;;;;6.82;2.30;;;16.10;90.10;;;;;;5112406;28;20052;-76
2022/04/26 15:18:32;;;;;;;7.38;2.53;;;16.10;90.40;;;;;;5093890;28;20639;-76
2022/04/26 15:20:59;;;;;;;7.35;2.50;;;16.10;90.70;;;;;;5093669;28;20080;-76
2022/04/26 15:23:25;;;;;;;5.90;2.50;;;16.00;90.40;;;;;;5089200;28;20398;-76
2022/04/26 15:25:52;;;;;;;5.32;2.15;;;15.90;90.30;;;;;;5093044;28;20040;-76
2022/04/26 15:28:19;;;;;;;5.88;2.42;;;15.90;90.60;;;;;;5093979;28;20067;-76
2022/04/26 15:30:45;;;;;;;5.22;2.38;;;15.70;90.00;;;;;;5094031;28;20056;-76
2022/04/26 15:33:11;;;;;;;5.20;2.15;;;15.50;90.40;;;;;;5112122;28;20052;-76
2022/04/26 15:35:38;;;;;;;6.35;2.67;;;15.30;91.00;;;;;;5113671;28;20525;-76
2022/04/26 15:38:05;;;;;;;5.03;2.20;;;15.20;90.40;;;;;;5114120;28;20047;-76
2022/04/26 15:40:31;;;;;;;4.85;2.33;;;15.10;90.80;;;;;;5105749;28;20044;-76
2022/04/26 15:42:56;;;;;;;5.60;2.55;;;15.00;91.40;;;;;;5093717;28;20085;-76
2022/04/26 15:45:22;;;;;;;5.70;1.90;;;14.90;92.00;;;;;;5093536;28;20048;-76
2022/04/26 15:47:47;;;;;;;5.75;2.28;;;14.90;91.30;;;;;;5093063;28;20173;-76
2022/04/26 15:50:13;;;;;;;8.18;2.45;;;14.80;91.50;;;;;;5099157;28;20044;-76
2022/04/26 15:52:40;;;;;;;6.13;2.50;;;14.80;92.00;;;;;;5112519;28;20380;-76
2022/04/26 15:55:07;;;;;;;5.60;2.28;;;14.70;91.90;;;;;;5099423;28;20413;-76
2022/04/26 15:57:33;;;;;;;6.28;2.33;;;14.60;92.20;;;;;;5094205;28;20052;-76
2022/04/26 16:00:00;;;;;;;6.13;1.98;;;14.50;91.20;;;;;;5113799;28;20100;-76
2022/04/26 16:02:26;;;;;;;4.55;2.17;;;14.40;90.80;;;;;;5113129;28;20123;-76
2022/04/26 16:04:51;;;;;;;8.13;2.50;;;14.30;91.70;;;;;;5112032;28;20162;-76
2022/04/26 16:07:18;;;;;;;5.93;2.70;;;14.10;91.80;;;;;;5112272;28;20043;-76
2022/04/26 16:20:52;;;;;;;9.68;2.42;;;13.90;92.20;;;;;;5113683;28;20075;-76
2022/04/26 16:23:17;;;;;;;6.25;2.60;;;13.80;91.90;;;;;;5095189;28;20289;-76
2022/04/26 16:25:43;;;;;;;4.25;2.00;;;13.80;92.10;;;;;;5091569;28;20059;-76
2022/04/26 16:28:09;;;;;;;8.85;2.20;;;13.70;92.20;;;;;;5092974;28;20100;-77
2022/04/26 16:30:36;;;;;;;7.20;2.35;;;13.60;91.60;;;;;;5107420;28;20051;-76
2022/04/26 16:33:04;;;;;;;7.22;2.33;;;13.60;91.40;;;;;;5112337;28;20089;-76
2022/04/26 16:35:32;;;;;;;6.00;2.42;;;13.50;91.70;;;;;;5111658;28;20040;-76
2022/04/26 16:37:57;;;;;;;7.78;2.78;;;13.50;91.70;;;;;;5110334;28;20499;-76
2022/04/26 16:40:23;;;;;;;5.85;2.28;;;13.50;91.60;;;;;;5111641;28;20096;-76
2022/04/26 16:42:48;;;;;;;8.48;2.40;;;13.40;91.50;;;;;;5112740;28;20096;-76
2022/04/26 16:45:14;;;;;;;8.75;2.47;;;13.30;92.00;;;;;;5110703;28;20521;-76
2022/04/26 16:47:40;;;;;;;5.70;2.38;;;13.20;91.80;;;;;;5111396;28;20399;-76
2022/04/26 16:50:09;;;;;;;6.35;2.70;;;13.20;92.20;;;;;;5111104;28;20563;-76
2022/04/26 16:52:36;;;;;;;4.80;2.13;;;13.10;92.30;;;;;;5105851;28;20031;-76
2022/04/26 16:55:02;;;;;;;6.32;2.40;;;13.10;92.10;;;;;;5112279;28;20052;-76
2022/04/26 16:57:28;;;;;;;5.53;2.17;;;13.00;92.10;;;;;;5111844;28;20043;-76
2022/04/26 16:59:56;;;;;;;6.28;2.58;;;13.00;92.50;;;;;;5112658;28;20045;-76
2022/04/26 17:02:25;;;;;;;7.38;2.30;;;13.00;92.30;;;;;;5112462;27;20062;-76
2022/04/26 17:04:51;;;;;;;6.30;2.53;;;12.90;92.10;;;;;;5103216;28;20046;-76
2022/04/26 17:07:16;;;;;;;6.72;2.50;;;13.00;92.70;;;;;;5090665;28;20395;-76
2022/04/26 17:09:42;;;;;;;6.90;2.25;;;12.80;92.60;;;;;;5106191;28;20079;-76
2022/04/26 17:12:09;;;;;;;6.22;2.30;;;12.70;92.40;;;;;;5111983;28;20505;-76
2022/04/26 17:14:35;;;;;;;6.32;2.72;;;12.60;92.80;;;;;;5110476;28;20051;-76
2022/04/26 17:17:01;;;;;;;8.70;2.80;;;12.60;92.80;;;;;;5112500;28;20036;-76